createdAt,value
2022-11-13T00:02:06.142Z,99213.94
2022-11-13T00:05:12.415Z,99181.53
2022-11-13T00:08:19.226Z,99171.13
2022-11-13T00:11:25.469Z,99176.31
2022-11-13T00:14:31.534Z,99176.31
2022-11-13T00:17:37.538Z,99146.34
2022-11-13T00:20:43.519Z,99155.56
2022-11-13T00:23:50.915Z,99178.75
2022-11-13T00:26:57.060Z,99166.03
2022-11-13T00:30:05.608Z,99176.88
2022-11-13T00:33:16.285Z,99178.38
2022-11-13T00:36:29.060Z,99194.84
2022-11-13T00:39:35.152Z,99161.47
2022-11-13T00:42:41.192Z,99153.56
2022-11-13T00:45:47.053Z,99154.72
2022-11-13T00:48:52.811Z,99199.19
2022-11-13T00:52:00.282Z,99178.38
2022-11-13T00:55:06.772Z,99164.97
2022-11-13T00:58:13.525Z,99172.50
2022-11-13T01:01:21.106Z,99182.88
2022-11-13T01:04:29.148Z,99182.63
2022-11-13T01:07:37.475Z,99193.97
2022-11-13T01:10:53.063Z,99238.06
2022-11-13T01:13:59.906Z,99242.44
2022-11-13T01:17:06.074Z,99186.44
2022-11-13T01:20:12.420Z,99186.00
2022-11-13T01:23:18.288Z,99232.88
2022-11-13T01:26:29.648Z,99219.03
2022-11-13T01:29:38.245Z,99228.84
2022-11-13T01:32:44.654Z,99183.22
2022-11-13T01:35:50.584Z,99192.63
2022-11-13T01:38:57.061Z,99193.22
2022-11-13T01:42:03.513Z,99181.47
2022-11-13T01:45:46.556Z,99174.84
2022-11-13T01:49:04.366Z,99192.66
2022-11-13T01:52:24.154Z,99178.06
2022-11-13T01:55:30.422Z,99159.19
2022-11-13T01:58:38.313Z,99173.25
2022-11-13T02:01:44.621Z,99165.72
2022-11-13T02:04:51.053Z,99162.63
2022-11-13T02:07:57.065Z,99172.13
2022-11-13T02:11:03.554Z,99162.00
2022-11-13T02:14:11.655Z,99198.69
2022-11-13T02:17:34.004Z,99184.81
2022-11-13T02:20:46.861Z,99173.44
2022-11-13T02:24:00.388Z,99163.88
2022-11-13T02:27:10.945Z,99147.31
2022-11-13T02:30:27.390Z,99176.41
2022-11-13T02:33:33.875Z,99142.75
2022-11-13T02:36:39.949Z,99174.06
2022-11-13T02:39:46.169Z,99159.00
2022-11-13T02:42:52.405Z,99158.19
2022-11-13T02:45:58.374Z,99142.00
2022-11-13T02:49:04.456Z,99126.88
2022-11-13T02:52:11.029Z,99150.81
2022-11-13T02:55:17.249Z,99166.84
2022-11-13T02:58:23.209Z,99130.94
2022-11-13T03:01:29.424Z,99160.34
2022-11-13T03:05:05.406Z,99155.63
2022-11-13T03:08:01.907Z,99123.88
2022-11-13T03:11:11.719Z,99126.47
2022-11-13T03:14:17.584Z,99149.00
2022-11-13T03:17:23.567Z,99140.81
2022-11-13T03:20:30.061Z,99144.41
2022-11-13T03:23:36.915Z,99138.13
2022-11-13T03:26:42.951Z,99128.06
2022-11-13T03:29:49.395Z,99130.59
2022-11-13T03:32:56.037Z,99137.78
2022-11-13T03:36:01.868Z,99136.28
2022-11-13T03:39:07.870Z,99144.50
2022-11-13T03:42:14.418Z,99145.47
2022-11-13T03:45:20.810Z,99151.25
2022-11-13T03:48:27.629Z,99135.44
2022-11-13T03:51:34.205Z,99147.56
2022-11-13T03:54:40.669Z,99165.38
2022-11-13T03:57:47.705Z,99147.44
2022-11-13T04:00:54.586Z,99137.00
2022-11-13T04:04:00.805Z,99144.88
2022-11-13T04:07:06.831Z,99141.81
2022-11-13T04:10:14.068Z,99127.22
2022-11-13T04:13:20.018Z,99120.28
2022-11-13T04:16:25.886Z,99134.88
2022-11-13T04:19:32.035Z,99141.47
2022-11-13T04:22:38.050Z,99149.81
2022-11-13T04:25:44.873Z,99151.69
2022-11-13T04:28:50.869Z,99166.56
2022-11-13T04:31:56.979Z,99182.09
2022-11-13T04:35:03.583Z,99186.88
2022-11-13T04:38:09.988Z,99216.47
2022-11-13T04:41:39.224Z,99173.00
2022-11-13T04:44:45.049Z,99161.91
2022-11-13T04:47:52.151Z,99195.94
2022-11-13T04:50:58.222Z,99168.28
2022-11-13T04:54:04.459Z,99161.22
2022-11-13T04:57:11.067Z,99200.19
2022-11-13T05:00:17.854Z,99189.78
2022-11-13T05:03:23.949Z,99169.72
2022-11-13T05:06:30.304Z,99193.97
2022-11-13T05:09:36.344Z,99188.31
2022-11-13T05:12:42.266Z,99180.06
2022-11-13T05:15:48.110Z,99180.19
2022-11-13T05:18:54.270Z,99180.34
2022-11-13T05:22:00.493Z,99217.34
2022-11-13T05:25:06.760Z,99213.63
2022-11-13T05:28:13.030Z,99192.66
2022-11-13T05:31:19.102Z,99252.59
2022-11-13T05:34:24.927Z,99231.59
2022-11-13T05:37:30.873Z,99228.78
2022-11-13T05:40:37.005Z,99247.19
2022-11-13T05:43:43.605Z,99255.44
2022-11-13T05:46:49.874Z,99219.75
2022-11-13T05:49:56.115Z,99201.41
2022-11-13T05:53:02.321Z,99213.50
2022-11-13T05:56:23.743Z,99218.31
2022-11-13T05:59:29.621Z,99238.00
2022-11-13T06:02:35.650Z,99262.59
2022-11-13T06:05:41.664Z,99311.63
2022-11-13T06:08:48.825Z,99314.47
2022-11-13T06:11:55.079Z,99308.16
2022-11-13T06:15:01.326Z,99299.31
2022-11-13T06:18:07.849Z,99336.66
2022-11-13T06:21:20.713Z,99334.56
2022-11-13T06:24:27.146Z,99322.84
2022-11-13T06:27:33.382Z,99319.16
2022-11-13T06:30:39.690Z,99309.78
2022-11-13T06:33:46.513Z,99358.22
2022-11-13T06:36:53.651Z,99324.50
2022-11-13T06:39:59.738Z,99329.41
2022-11-13T06:43:06.003Z,99314.06
2022-11-13T06:46:15.189Z,99332.56
2022-11-13T06:49:21.475Z,99383.34
2022-11-13T06:52:27.864Z,99367.38
2022-11-13T06:55:34.123Z,99364.00
2022-11-13T06:58:40.713Z,99378.31
2022-11-13T07:01:46.758Z,99369.13
2022-11-13T07:04:52.956Z,99383.34
2022-11-13T07:07:58.900Z,99409.84
2022-11-13T07:11:04.808Z,99369.94
2022-11-13T07:14:12.513Z,99405.72
2022-11-13T07:17:18.471Z,99381.22
2022-11-13T07:20:24.570Z,99408.84
2022-11-13T07:23:30.593Z,99403.91
2022-11-13T07:26:36.561Z,99449.47
2022-11-13T07:29:42.937Z,99416.63
2022-11-13T07:32:50.851Z,99408.97
2022-11-13T07:35:57.669Z,99401.72
2022-11-13T07:39:04.038Z,99425.19
2022-11-13T07:42:10.099Z,99470.28
2022-11-13T07:45:16.261Z,99453.56
2022-11-13T07:48:23.384Z,99430.56
2022-11-13T07:51:29.110Z,99418.13
2022-11-13T07:54:35.244Z,99461.78
2022-11-13T07:57:41.278Z,99472.53
2022-11-13T08:00:47.535Z,99433.81
2022-11-13T08:03:53.893Z,99424.72
2022-11-13T08:06:59.970Z,99448.03
2022-11-13T08:10:06.670Z,99410.34
2022-11-13T08:13:13.114Z,99421.16
2022-11-13T08:16:19.679Z,99426.34
2022-11-13T08:19:26.212Z,99434.75
2022-11-13T08:22:32.962Z,99440.41
2022-11-13T08:25:40.061Z,99456.44
2022-11-13T08:28:47.354Z,99493.94
2022-11-13T08:31:53.556Z,99445.25
2022-11-13T08:34:59.687Z,99441.34
2022-11-13T08:38:07.658Z,99472.25
2022-11-13T08:41:13.892Z,99482.81
2022-11-13T08:44:22.726Z,99470.69
2022-11-13T08:47:29.771Z,99471.72
2022-11-13T08:50:35.942Z,99459.94
2022-11-13T08:53:42.037Z,99477.94
2022-11-13T08:56:54.466Z,99488.94
2022-11-13T09:00:02.493Z,99502.50
2022-11-13T09:03:11.037Z,99481.81
2022-11-13T09:06:17.212Z,99488.47
2022-11-13T09:09:23.508Z,99472.44
2022-11-13T09:12:30.517Z,99467.09
2022-11-13T09:15:38.316Z,99495.25
2022-11-13T09:18:44.507Z,99474.06
2022-11-13T09:21:51.934Z,99484.91
2022-11-13T09:24:58.208Z,99478.59
2022-11-13T09:28:06.272Z,99481.50
2022-11-13T09:31:12.215Z,99531.50
2022-11-13T09:34:18.267Z,99491.22
2022-11-13T09:37:24.717Z,99493.47
2022-11-13T09:40:51.608Z,99487.34
2022-11-13T09:44:04.064Z,99498.19
2022-11-13T09:47:24.879Z,99479.56
2022-11-13T09:50:31.651Z,99524.91
2022-11-13T09:53:40.059Z,99531.38
2022-11-13T09:56:51.376Z,99551.25
2022-11-13T10:00:11.557Z,99525.69
2022-11-13T10:04:00.000Z,99588.69
2022-11-13T10:07:42.113Z,99543.09
2022-11-13T10:11:13.215Z,99557.66
2022-11-13T10:14:31.865Z,99574.06
2022-11-13T10:17:55.320Z,99575.31
2022-11-13T10:21:44.731Z,99614.91
2022-11-13T10:24:52.820Z,99583.38
2022-11-13T10:28:04.536Z,99576.25
2022-11-13T10:31:58.459Z,99624.91
2022-11-13T10:35:07.366Z,99604.13
2022-11-13T10:38:20.209Z,99629.72
2022-11-13T10:41:26.545Z,99602.88
2022-11-13T10:44:33.526Z,99608.00
2022-11-13T10:48:03.681Z,99604.16
2022-11-13T10:51:19.230Z,99613.91
2022-11-13T10:54:28.385Z,99636.94
2022-11-13T10:57:37.461Z,99655.69
2022-11-13T11:00:47.374Z,99651.63
2022-11-13T11:07:21.800Z,99639.81
2022-11-13T11:10:36.916Z,99633.69
2022-11-13T11:13:43.415Z,99685.06
2022-11-13T11:16:52.539Z,99631.50
2022-11-13T11:20:05.730Z,99640.63
2022-11-13T11:23:27.727Z,99646.25
2022-11-13T11:27:01.452Z,99637.41
2022-11-13T11:30:22.781Z,99660.84
2022-11-13T11:33:42.415Z,99670.88
2022-11-13T11:37:06.388Z,99674.91
2022-11-13T11:40:34.252Z,99706.66
2022-11-13T11:43:49.465Z,99671.34
2022-11-13T11:46:56.354Z,99713.75
2022-11-13T11:50:13.405Z,99665.44
2022-11-13T11:53:49.751Z,99710.41
2022-11-13T11:57:03.973Z,99690.03
2022-11-13T12:00:16.869Z,99698.53
2022-11-13T12:03:59.409Z,99726.34
2022-11-13T12:07:06.373Z,99718.91
2022-11-13T12:10:35.486Z,99744.31
2022-11-13T12:13:49.804Z,99723.88
2022-11-13T12:17:18.595Z,99699.22
2022-11-13T12:20:47.475Z,99711.72
2022-11-13T12:24:01.853Z,99724.00
2022-11-13T12:27:16.316Z,99745.34
2022-11-13T12:30:24.850Z,99773.97
2022-11-13T12:33:39.918Z,99766.94
2022-11-13T12:36:47.212Z,99770.94
2022-11-13T12:40:00.420Z,99747.97
2022-11-13T12:43:09.245Z,99745.91
2022-11-13T12:46:15.702Z,99775.28
2022-11-13T12:49:29.897Z,99789.28
2022-11-13T12:52:36.002Z,99789.59
2022-11-13T12:55:42.012Z,99788.66
2022-11-13T12:59:28.620Z,99802.03
2022-11-13T13:02:32.094Z,99817.38
2022-11-13T13:06:03.051Z,99801.34
2022-11-13T13:09:25.725Z,99827.38
2022-11-13T13:12:39.639Z,99817.63
2022-11-13T13:15:47.128Z,99833.13
2022-11-13T13:18:53.440Z,99824.84
2022-11-13T13:21:59.497Z,99840.63
2022-11-13T13:25:26.077Z,99880.72
2022-11-13T13:28:32.762Z,99838.28
2022-11-13T13:31:49.081Z,99840.50
2022-11-13T13:35:13.936Z,99848.53
2022-11-13T13:38:29.145Z,99866.16
2022-11-13T13:41:49.779Z,99860.47
2022-11-13T13:45:14.392Z,99872.44
2022-11-13T13:48:21.886Z,99874.19
2022-11-13T13:51:37.391Z,99877.72
2022-11-13T13:54:52.933Z,99903.41
2022-11-13T13:58:11.310Z,99888.56
2022-11-13T14:01:27.362Z,99907.78
2022-11-13T14:40:09.370Z,99962.03
2022-11-13T15:05:28.349Z,99978.72
2022-11-13T15:08:34.839Z,99981.59
2022-11-13T15:11:41.166Z,99978.22
2022-11-13T15:14:48.325Z,99976.31
2022-11-13T15:17:57.345Z,99993.28
2022-11-13T15:21:10.944Z,100013.69
2022-11-13T15:24:17.817Z,100005.94
2022-11-13T15:27:23.622Z,99994.09
2022-11-13T15:30:29.680Z,100015.44
2022-11-13T15:33:35.454Z,100012.84
2022-11-13T15:36:41.960Z,100018.41
2022-11-13T15:39:47.896Z,100006.59
2022-11-13T15:42:54.191Z,100026.41
2022-11-13T15:46:00.011Z,100020.16
2022-11-13T15:49:06.162Z,100023.66
2022-11-13T15:52:12.253Z,100056.09
2022-11-13T15:55:20.103Z,100047.00
2022-11-13T15:58:30.480Z,100040.22
2022-11-13T16:01:40.002Z,100045.38
2022-11-13T16:04:55.922Z,100053.81
2022-11-13T16:08:09.941Z,100059.88
2022-11-13T16:11:17.058Z,100062.47
2022-11-13T16:14:25.032Z,100067.38
2022-11-13T16:17:34.255Z,100071.44
2022-11-13T16:20:40.343Z,100102.03
2022-11-13T16:23:46.798Z,100112.47
2022-11-13T16:26:55.856Z,100071.44
2022-11-13T16:30:06.664Z,100087.75
2022-11-13T16:33:13.382Z,100082.88
2022-11-13T16:36:22.435Z,100075.91
2022-11-13T16:39:28.075Z,100088.13
2022-11-13T16:42:33.908Z,100090.97
2022-11-13T16:45:39.654Z,100092.03
2022-11-13T16:48:45.970Z,100100.75
2022-11-13T16:51:53.620Z,100093.94
2022-11-13T16:55:03.704Z,100114.00
2022-11-13T16:58:13.620Z,100150.09
2022-11-13T17:01:20.045Z,100112.22
2022-11-13T17:04:25.833Z,100106.03
2022-11-13T17:07:32.070Z,100126.00
2022-11-13T17:10:38.553Z,100096.00
2022-11-13T17:13:48.509Z,100100.09
2022-11-13T17:16:54.432Z,100114.72
2022-11-13T17:20:00.155Z,100108.50
2022-11-13T17:23:06.232Z,100131.59
2022-11-13T17:26:12.499Z,100134.66
2022-11-13T17:29:18.291Z,100126.69
2022-11-13T17:32:24.528Z,100142.69
2022-11-13T17:35:30.376Z,100124.97
2022-11-13T17:38:37.603Z,100138.78
2022-11-13T17:41:43.597Z,100127.75
2022-11-13T17:44:49.519Z,100122.78
2022-11-13T17:47:55.396Z,100124.44
2022-11-13T17:51:05.674Z,100136.91
2022-11-13T17:54:11.496Z,100151.94
2022-11-13T17:57:19.570Z,100159.69
2022-11-13T18:00:28.643Z,100147.22
2022-11-13T18:03:34.913Z,100138.00
2022-11-13T18:06:40.767Z,100152.50
2022-11-13T18:09:46.834Z,100173.69
2022-11-13T18:12:53.093Z,100158.22
2022-11-13T18:16:06.154Z,100171.44
2022-11-13T18:19:11.818Z,100173.19
2022-11-13T18:22:17.513Z,100161.28
2022-11-13T18:25:24.023Z,100168.03
2022-11-13T18:28:30.005Z,100165.47
2022-11-13T18:31:35.856Z,100164.06
2022-11-13T18:34:41.758Z,100174.38
2022-11-13T18:37:49.534Z,100169.13
2022-11-13T18:41:09.290Z,100189.66
2022-11-13T18:44:15.128Z,100182.22
2022-11-13T18:47:20.991Z,100171.94
2022-11-13T18:50:27.795Z,100173.72
2022-11-13T18:53:33.835Z,100187.91
2022-11-13T18:56:40.788Z,100171.31
2022-11-13T18:59:49.660Z,100177.06
2022-11-13T19:02:55.874Z,100167.94
2022-11-13T19:06:02.020Z,100190.63
2022-11-13T19:09:10.689Z,100209.69
2022-11-13T19:12:16.641Z,100179.91
2022-11-13T19:15:23.028Z,100197.25
2022-11-13T19:18:29.098Z,100162.16
2022-11-13T19:21:36.061Z,100179.22
2022-11-13T19:24:42.421Z,100176.47
2022-11-13T19:27:50.423Z,100188.06
2022-11-13T19:30:59.061Z,100182.09
2022-11-13T19:34:06.232Z,100190.50
2022-11-13T19:37:16.307Z,100175.06
2022-11-13T19:40:24.934Z,100202.69
2022-11-13T19:43:31.791Z,100189.00
2022-11-13T19:46:37.638Z,100195.78
2022-11-13T19:49:43.622Z,100193.56
2022-11-13T19:52:51.094Z,100208.09
2022-11-13T19:55:56.910Z,100229.59
2022-11-13T19:59:02.673Z,100220.84
2022-11-13T20:02:09.012Z,100206.44
2022-11-13T20:05:15.169Z,100199.66
2022-11-13T20:08:25.360Z,100199.19
2022-11-13T20:11:34.140Z,100194.03
2022-11-13T20:14:39.920Z,100205.06
2022-11-13T20:17:46.042Z,100213.13
2022-11-13T20:20:54.898Z,100204.34
2022-11-13T20:24:01.049Z,100192.88
2022-11-13T20:27:07.491Z,100210.41
2022-11-13T20:30:13.297Z,100202.47
2022-11-13T20:33:22.597Z,100236.16
2022-11-13T20:36:29.157Z,100244.69
2022-11-13T20:39:35.449Z,100239.41
2022-11-13T20:42:41.077Z,100252.69
2022-11-13T20:45:46.985Z,100252.81
2022-11-13T20:48:52.860Z,100266.72
2022-11-13T20:51:58.987Z,100257.31
2022-11-13T20:55:05.179Z,100263.28
2022-11-13T20:58:11.170Z,100273.22
2022-11-13T21:01:19.172Z,100283.06
2022-11-13T21:04:25.164Z,100264.03
2022-11-13T21:07:31.253Z,100277.16
2022-11-13T21:10:37.552Z,100287.09
2022-11-13T21:13:43.488Z,100289.06
2022-11-13T21:16:49.553Z,100305.97
2022-11-13T21:19:57.650Z,100291.34
2022-11-13T21:23:03.948Z,100290.59
2022-11-13T21:26:10.107Z,100284.91
2022-11-13T21:29:16.159Z,100267.59
2022-11-13T21:32:21.890Z,100295.91
2022-11-13T21:35:28.358Z,100289.97
2022-11-13T21:38:34.755Z,100290.59
2022-11-13T21:41:40.861Z,100283.28
2022-11-13T21:44:47.109Z,100287.09
2022-11-13T21:47:53.329Z,100297.91
2022-11-13T21:50:59.221Z,100303.16
2022-11-13T21:54:05.549Z,100296.25
2022-11-13T21:57:11.422Z,100292.06
2022-11-13T22:00:17.726Z,100290.16
2022-11-13T22:03:23.777Z,100315.81
2022-11-13T22:06:31.316Z,100299.59
2022-11-13T22:09:38.289Z,100301.31
2022-11-13T22:12:44.491Z,100330.28
2022-11-13T22:15:51.011Z,100325.75
2022-11-13T22:18:58.563Z,100314.47
2022-11-13T22:22:04.693Z,100314.47
2022-11-13T22:25:10.792Z,100341.03
2022-11-13T22:28:16.522Z,100318.66
2022-11-13T22:31:27.254Z,100333.34
2022-11-13T22:34:33.329Z,100308.44
2022-11-13T22:37:39.549Z,100315.53
2022-11-13T22:40:45.441Z,100354.75
2022-11-13T22:43:52.487Z,100333.06
2022-11-13T22:46:58.695Z,100334.59
2022-11-13T22:50:05.149Z,100335.13
2022-11-13T22:53:14.718Z,100333.41
2022-11-13T22:56:21.371Z,100358.47
2022-11-13T22:59:27.502Z,100334.66
2022-11-13T23:02:33.168Z,100360.19
2022-11-13T23:05:39.296Z,100363.25
2022-11-13T23:08:45.146Z,100351.88
2022-11-13T23:11:50.933Z,100357.00
2022-11-13T23:14:57.174Z,100339.97
2022-11-13T23:18:05.866Z,100350.44
2022-11-13T23:21:15.850Z,100348.69
2022-11-13T23:24:22.816Z,100351.47
2022-11-13T23:27:28.888Z,100345.53
2022-11-13T23:30:34.820Z,100343.66
2022-11-13T23:33:40.979Z,100357.84
2022-11-13T23:36:47.272Z,100382.06
2022-11-13T23:39:53.099Z,100387.75
2022-11-13T23:43:00.265Z,100405.22
2022-11-13T23:46:06.453Z,100387.28
2022-11-13T23:49:12.604Z,100397.78
2022-11-13T23:52:18.298Z,100401.00
2022-11-13T23:55:24.928Z,100400.47
2022-11-13T23:58:32.495Z,100403.75
